Time;durP1;ratioP1;P1;durP2;ratioP2;P2;SDS_P1;SDS_P2;PMS_P1;PMS_P2;Temp;Humidity;BMP_temperature;BMP_pressure;BME280_temperature;BME280_humidity;BME280_pressure;Samples;Min_cycle;Max_cycle;Signal;HPM_P1;HPM_P2
2021/04/11 00:00:31;;;;;;;2.13;1.90;;;14.20;90.20;;;;;;5042084;28;20468;-57
2021/04/11 00:02:57;;;;;;;4.70;1.60;;;14.10;90.20;;;;;;5033200;28;20431;-57
2021/04/11 00:05:30;;;;;;;3.40;1.43;;;14.00;90.10;;;;;;5046893;28;20447;-57
2021/04/11 00:07:56;;;;;;;1.57;1.47;;;14.00;90.30;;;;;;5053179;28;20814;-57
2021/04/11 00:10:25;;;;;;;1.80;1.37;;;13.90;90.30;;;;;;5053137;28;20410;-57
2021/04/11 00:12:51;;;;;;;2.00;1.60;;;13.90;90.40;;;;;;5052912;28;20261;-57
2021/04/11 00:15:18;;;;;;;3.17;2.20;;;13.80;90.60;;;;;;5053356;28;20950;-57
2021/04/11 00:17:44;;;;;;;2.83;2.30;;;13.70;90.70;;;;;;5053116;28;20245;-57
2021/04/11 00:20:11;;;;;;;3.23;1.63;;;13.60;90.90;;;;;;5052988;28;20413;-57
2021/04/11 00:22:37;;;;;;;3.30;2.00;;;13.60;91.10;;;;;;5053179;28;20448;-57
2021/04/11 00:25:11;;;;;;;2.70;1.50;;;13.40;91.10;;;;;;5053304;28;20417;-56
2021/04/11 00:27:37;;;;;;;1.67;1.57;;;13.40;91.60;;;;;;5052746;28;20300;-57
2021/04/11 00:30:04;;;;;;;1.93;1.73;;;13.40;91.60;;;;;;5052739;28;20441;-57
2021/04/11 00:32:30;;;;;;;2.93;1.50;;;13.30;91.50;;;;;;5052954;28;20214;-57
2021/04/11 00:34:55;;;;;;;1.70;1.53;;;13.30;91.60;;;;;;5052674;28;20987;-56
2021/04/11 00:37:21;;;;;;;2.23;1.97;;;13.20;91.80;;;;;;5053245;28;20188;-56
2021/04/11 00:39:46;;;;;;;2.10;1.60;;;13.10;92.00;;;;;;5052511;28;20249;-57
2021/04/11 00:42:23;;;;;;;2.60;1.60;;;12.90;92.20;;;;;;5053890;28;20292;-54
2021/04/11 00:44:49;;;;;;;1.67;1.40;;;12.80;92.60;;;;;;5056257;28;20182;-56
2021/04/11 00:47:16;;;;;;;1.63;1.50;;;12.70;92.90;;;;;;5056553;28;20410;-57
2021/04/11 00:49:46;;;;;;;1.70;1.60;;;12.70;92.80;;;;;;5054908;28;20428;-52
2021/04/11 00:52:14;;;;;;;2.33;1.90;;;12.80;93.10;;;;;;5054550;28;20433;-57
2021/04/11 00:54:41;;;;;;;3.23;1.50;;;12.80;93.10;;;;;;5056685;28;20959;-55
2021/04/11 00:57:09;;;;;;;3.23;1.70;;;12.70;93.10;;;;;;5056513;28;20401;-56
2021/04/11 00:59:35;;;;;;;2.70;1.77;;;12.70;93.10;;;;;;5056568;28;20415;-57
2021/04/11 01:02:02;;;;;;;1.97;1.50;;;12.70;93.20;;;;;;5056654;28;20476;-56
2021/04/11 01:04:28;;;;;;;2.67;1.70;;;12.60;93.70;;;;;;5055742;28;20416;-56
2021/04/11 01:06:57;;;;;;;1.90;1.70;;;12.50;93.30;;;;;;5056753;28;20409;-57
2021/04/11 01:09:31;;;;;;;2.23;1.70;;;12.50;93.60;;;;;;5055962;28;20446;-56
2021/04/11 01:11:59;;;;;;;2.00;1.80;;;12.50;93.40;;;;;;5056275;28;20451;-57
2021/04/11 01:14:28;;;;;;;3.77;1.50;;;12.60;93.70;;;;;;5056333;28;20413;-57
2021/04/11 01:16:54;;;;;;;3.90;1.80;;;12.70;93.50;;;;;;5056401;28;20538;-57
2021/04/11 01:19:24;;;;;;;3.03;2.00;;;12.60;93.30;;;;;;5056465;28;20503;-57
2021/04/11 01:22:24;;;;;;;2.10;1.47;;;12.60;93.20;;;;;;5055976;28;20194;-57
2021/04/11 01:24:59;;;;;;;1.93;1.27;;;12.70;93.20;;;;;;5055959;28;20882;-57
2021/04/11 01:27:30;;;;;;;2.67;1.90;;;12.60;93.40;;;;;;5055998;28;20404;-57
2021/04/11 01:29:57;;;;;;;1.90;1.53;;;12.60;93.70;;;;;;5056016;28;20390;-57
2021/04/11 01:32:23;;;;;;;1.83;1.50;;;12.80;93.70;;;;;;5039125;28;20475;-57
2021/04/11 01:34:52;;;;;;;2.63;1.60;;;12.70;93.30;;;;;;5045048;28;20439;-57
2021/04/11 01:37:20;;;;;;;1.67;1.40;;;12.80;93.50;;;;;;5056047;28;20572;-57
2021/04/11 01:39:46;;;;;;;1.60;1.50;;;12.70;93.40;;;;;;5055854;28;20912;-57
2021/04/11 01:42:14;;;;;;;2.07;1.60;;;12.80;93.40;;;;;;5056034;28;20433;-57
2021/04/11 01:44:46;;;;;;;1.97;1.77;;;12.90;93.60;;;;;;5056099;28;20502;-57
2021/04/11 01:47:13;;;;;;;2.93;1.83;;;12.80;93.70;;;;;;5056561;28;20392;-57
2021/04/11 01:49:40;;;;;;;2.97;1.63;;;12.80;93.60;;;;;;5056003;28;20453;-57
2021/04/11 01:52:12;;;;;;;3.10;1.80;;;12.80;93.90;;;;;;5055723;28;20421;-57
2021/04/11 01:54:38;;;;;;;2.80;1.37;;;12.70;93.90;;;;;;5054311;28;20463;-57
2021/04/11 01:57:07;;;;;;;2.60;1.90;;;12.80;93.80;;;;;;5056160;28;20455;-55
2021/04/11 01:59:33;;;;;;;1.70;1.60;;;12.90;93.80;;;;;;5052537;28;20431;-53
2021/04/11 02:01:58;;;;;;;2.70;1.37;;;13.00;93.70;;;;;;5036015;28;20521;-53
2021/04/11 02:04:24;;;;;;;2.10;1.70;;;13.10;93.60;;;;;;5041486;28;20200;-55
2021/04/11 02:06:54;;;;;;;3.67;2.20;;;13.20;93.50;;;;;;5055543;28;20643;-53
2021/04/11 02:09:25;;;;;;;1.90;1.67;;;13.30;93.50;;;;;;5055833;28;20193;-54
2021/04/11 02:11:51;;;;;;;1.70;1.60;;;13.40;93.50;;;;;;5055152;28;20450;-55
2021/04/11 02:14:17;;;;;;;1.83;1.70;;;13.50;93.50;;;;;;5054969;28;20748;-57
2021/04/11 02:16:44;;;;;;;4.33;1.97;;;13.60;93.60;;;;;;5054968;28;20410;-57
2021/04/11 02:19:19;;;;;;;2.10;1.60;;;13.60;93.60;;;;;;5047582;28;20425;-57
2021/04/11 02:22:06;;;;;;;1.53;1.43;;;13.60;93.70;;;;;;5053611;28;20887;-57
2021/04/11 02:24:35;;;;;;;1.80;1.70;;;13.60;93.60;;;;;;5054633;28;20417;-57
2021/04/11 02:27:01;;;;;;;4.20;1.50;;;13.40;94.00;;;;;;5055093;28;20447;-57
2021/04/11 02:29:28;;;;;;;3.07;1.73;;;13.30;94.10;;;;;;5055025;28;20449;-57
2021/04/11 02:31:54;;;;;;;2.77;1.50;;;13.30;94.30;;;;;;5055621;28;20717;-57
2021/04/11 02:34:31;;;;;;;2.30;1.50;;;13.30;94.50;;;;;;5046569;28;20844;-57
2021/04/11 02:36:59;;;;;;;2.20;1.43;;;13.40;94.70;;;;;;5055046;28;20919;-57
2021/04/11 02:39:29;;;;;;;2.90;1.90;;;13.40;95.00;;;;;;5050843;28;20475;-57
2021/04/11 02:41:56;;;;;;;2.30;1.30;;;13.40;95.40;;;;;;5054647;28;20429;-57
2021/04/11 02:44:22;;;;;;;1.90;1.80;;;13.20;95.80;;;;;;5054190;28;20782;-56
2021/04/11 02:46:49;;;;;;;1.73;1.40;;;13.10;96.20;;;;;;5042903;28;20917;-57
2021/04/11 02:49:17;;;;;;;2.47;1.60;;;13.00;96.40;;;;;;5034752;28;20458;-57
2021/04/11 02:51:44;;;;;;;1.70;1.60;;;13.00;97.20;;;;;;5037130;28;20483;-57
2021/04/11 02:54:14;;;;;;;1.97;1.70;;;13.00;97.20;;;;;;5054736;28;20405;-57
2021/04/11 02:56:42;;;;;;;2.20;1.90;;;13.00;97.50;;;;;;5054052;28;20412;-57
2021/04/11 02:59:10;;;;;;;2.00;1.80;;;12.90;97.80;;;;;;5054192;28;20932;-56
2021/04/11 03:01:40;;;;;;;2.67;1.50;;;13.00;98.00;;;;;;5054205;28;20429;-57
2021/04/11 03:04:06;;;;;;;6.10;2.17;;;13.00;98.20;;;;;;5047984;28;20447;-56
2021/04/11 03:06:37;;;;;;;2.50;1.67;;;13.10;98.60;;;;;;5047718;28;20426;-57
2021/04/11 03:09:12;;;;;;;4.20;1.80;;;13.10;98.80;;;;;;5034309;28;21056;-56
2021/04/11 03:11:41;;;;;;;2.70;2.27;;;13.20;98.90;;;;;;5053982;28;20538;-57
2021/04/11 03:14:10;;;;;;;2.00;1.87;;;13.00;99.20;;;;;;5053987;28;20771;-57
2021/04/11 03:16:38;;;;;;;1.87;1.77;;;13.00;99.50;;;;;;5053989;28;20413;-57
2021/04/11 03:19:04;;;;;;;1.70;1.60;;;13.00;99.60;;;;;;5054030;28;20412;-57
2021/04/11 03:21:31;;;;;;;1.83;1.50;;;13.00;99.70;;;;;;5053964;28;20922;-57
2021/04/11 03:23:57;;;;;;;3.67;1.83;;;13.00;99.40;;;;;;5053978;28;20412;-57
2021/04/11 03:26:42;;;;;;;3.30;1.83;;;13.10;99.60;;;;;;5053983;28;20431;-57
2021/04/11 03:29:26;;;;;;;3.00;1.73;;;13.10;99.60;;;;;;5053857;28;20441;-57
2021/04/11 03:32:17;;;;;;;1.60;1.50;;;13.10;99.40;;;;;;5054043;28;20515;-57
2021/04/11 03:34:45;;;;;;;3.23;1.87;;;12.90;98.90;;;;;;5053578;28;20427;-57
2021/04/11 03:37:13;;;;;;;3.13;1.90;;;12.90;99.00;;;;;;5053899;28;20893;-57
2021/04/11 03:39:39;;;;;;;1.80;1.50;;;12.90;98.90;;;;;;5053832;28;20776;-56
2021/04/11 03:42:08;;;;;;;2.10;1.73;;;12.90;99.10;;;;;;5053955;28;20913;-56
2021/04/11 03:44:35;;;;;;;2.37;1.63;;;12.90;99.30;;;;;;5044859;28;20884;-56
2021/04/11 03:47:06;;;;;;;2.40;1.70;;;12.90;99.20;;;;;;5046982;28;20410;-57
2021/04/11 03:49:40;;;;;;;2.60;2.07;;;12.90;99.30;;;;;;5053534;28;20856;-56
2021/04/11 03:52:20;;;;;;;1.83;1.40;;;12.90;99.30;;;;;;5053338;28;20429;-57
2021/04/11 03:54:47;;;;;;;3.17;1.93;;;12.80;98.90;;;;;;5053436;28;20484;-57
2021/04/11 03:57:37;;;;;;;2.40;1.60;;;12.80;98.80;;;;;;5053355;28;20401;-57
2021/04/11 04:00:11;;;;;;;2.10;1.90;;;12.90;98.60;;;;;;5045667;28;20413;-57
2021/04/11 04:02:40;;;;;;;3.00;1.67;;;12.90;98.70;;;;;;5037091;28;20425;-57
2021/04/11 04:05:08;;;;;;;3.03;1.60;;;12.90;98.70;;;;;;5053073;28;20429;-56
2021/04/11 04:07:45;;;;;;;2.80;1.70;;;12.90;98.90;;;;;;5053131;28;20401;-55
2021/04/11 04:10:12;;;;;;;2.90;1.60;;;12.90;98.50;;;;;;5053289;28;20388;-57
2021/04/11 04:12:56;;;;;;;5.37;1.50;;;12.90;98.30;;;;;;5067577;23;20502;-61
2021/04/11 04:15:35;;;;;;;2.60;2.07;;;13.00;98.40;;;;;;5051648;28;20389;-59
2021/04/11 04:18:48;;;;;;;2.00;1.80;;;12.90;98.70;;;;;;5052302;28;20419;-59
2021/04/11 04:21:29;;;;;;;4.90;1.87;;;12.90;98.20;;;;;;5052687;28;20421;-60
2021/04/11 04:24:03;;;;;;;2.20;2.00;;;12.60;98.30;;;;;;5052971;28;20429;-59
2021/04/11 04:26:32;;;;;;;3.50;1.97;;;12.60;98.90;;;;;;5052769;28;20920;-59
2021/04/11 04:29:03;;;;;;;5.27;3.23;;;12.60;98.60;;;;;;5052827;28;20483;-58
2021/04/11 04:31:56;;;;;;;3.37;2.30;;;12.70;98.50;;;;;;5052737;28;20457;-60
2021/04/11 04:34:58;;;;;;;3.90;3.00;;;12.80;98.60;;;;;;5042824;28;20895;-61
2021/04/11 04:37:36;;;;;;;4.23;3.03;;;12.70;98.40;;;;;;5039454;28;20489;-60
2021/04/11 04:40:22;;;;;;;3.63;2.20;;;12.40;98.40;;;;;;5032579;28;20492;-58
2021/04/11 04:43:20;;;;;;;2.90;2.10;;;12.50;98.40;;;;;;5052839;28;20409;-60
2021/04/11 04:45:57;;;;;;;3.53;1.90;;;12.60;98.50;;;;;;5052594;28;20437;-56
2021/04/11 04:48:27;;;;;;;3.30;1.70;;;12.70;98.50;;;;;;5052590;28;20527;-59
2021/04/11 04:51:16;;;;;;;2.57;2.20;;;12.70;98.50;;;;;;5052849;28;20796;-60
2021/04/11 04:53:57;;;;;;;4.07;1.90;;;12.80;98.50;;;;;;5039803;28;20528;-60
2021/04/11 04:56:31;;;;;;;1.77;1.53;;;12.80;98.40;;;;;;5032456;28;20390;-59
2021/04/11 04:59:02;;;;;;;4.60;1.77;;;12.80;98.70;;;;;;5047902;28;20409;-59
2021/04/11 05:01:41;;;;;;;2.80;2.10;;;12.90;98.70;;;;;;5052070;28;20429;-59
2021/04/11 05:04:16;;;;;;;3.30;2.30;;;13.10;98.70;;;;;;5052093;28;20402;-60
2021/04/11 05:06:46;;;;;;;2.00;1.80;;;13.10;98.20;;;;;;5052411;28;20438;-60
2021/04/11 05:09:17;;;;;;;3.27;2.03;;;13.10;98.40;;;;;;5052533;28;20449;-60
2021/04/11 05:11:53;;;;;;;3.33;2.07;;;13.20;98.40;;;;;;5051973;28;20476;-61
2021/04/11 05:14:33;;;;;;;4.63;2.10;;;13.20;98.60;;;;;;5036576;28;20419;-61
2021/04/11 05:17:07;;;;;;;4.60;1.83;;;13.10;98.60;;;;;;5048381;28;20819;-60
2021/04/11 05:19:39;;;;;;;2.17;1.90;;;13.20;99.00;;;;;;5052231;28;20399;-59
2021/04/11 05:22:26;;;;;;;3.63;2.07;;;13.20;98.70;;;;;;5035274;28;20433;-60
2021/04/11 05:25:11;;;;;;;2.50;2.03;;;13.20;98.60;;;;;;5032598;28;20478;-60
2021/04/11 05:28:04;;;;;;;4.03;1.97;;;13.30;98.90;;;;;;5032663;28;20418;-60
2021/04/11 05:30:40;;;;;;;3.03;1.90;;;13.20;98.90;;;;;;5035713;28;20390;-59
2021/04/11 05:33:08;;;;;;;3.13;2.03;;;13.10;99.30;;;;;;5043467;28;20425;-59
2021/04/11 05:35:34;;;;;;;3.27;1.80;;;13.10;99.10;;;;;;5055569;28;20413;-59
2021/04/11 05:38:21;;;;;;;2.43;1.93;;;13.30;98.80;;;;;;5055795;28;20409;-60
2021/04/11 05:41:01;;;;;;;4.53;1.90;;;13.30;99.10;;;;;;5055666;28;20250;-60
2021/04/11 05:43:39;;;;;;;3.10;2.27;;;13.30;99.20;;;;;;5055522;28;20857;-58
2021/04/11 05:46:19;;;;;;;2.43;1.60;;;13.50;99.10;;;;;;5035751;28;20418;-60
2021/04/11 05:48:54;;;;;;;4.37;2.10;;;13.60;99.10;;;;;;5035608;28;20437;-60
2021/04/11 05:51:31;;;;;;;2.70;1.80;;;13.70;98.70;;;;;;5035413;28;20398;-59
2021/04/11 05:54:04;;;;;;;2.23;1.77;;;13.80;99.10;;;;;;5031893;28;20392;-62
2021/04/11 05:56:43;;;;;;;2.43;1.90;;;13.90;99.00;;;;;;5049417;28;20413;-60
2021/04/11 05:59:13;;;;;;;2.80;2.00;;;13.80;99.10;;;;;;5055282;28;20438;-59
2021/04/11 06:01:59;;;;;;;2.73;1.97;;;13.90;99.30;;;;;;5041392;28;20489;-59
2021/04/11 06:04:43;;;;;;;4.30;2.33;;;13.70;98.40;;;;;;5040536;28;20488;-60
2021/04/11 06:07:23;;;;;;;4.30;2.30;;;13.90;98.70;;;;;;5055219;28;20409;-60
2021/04/11 06:09:54;;;;;;;2.07;1.60;;;14.10;98.80;;;;;;5055014;28;20449;-60
2021/04/11 06:12:37;;;;;;;2.17;1.97;;;14.20;98.90;;;;;;5053417;28;20451;-60
2021/04/11 06:15:23;;;;;;;2.30;2.07;;;14.20;98.60;;;;;;5035352;28;20408;-60
2021/04/11 06:17:49;;;;;;;2.03;1.77;;;14.30;98.60;;;;;;5017906;28;20422;-60
2021/04/11 06:20:17;;;;;;;3.20;2.30;;;14.30;98.70;;;;;;5035168;28;20452;-59
2021/04/11 06:23:01;;;;;;;2.73;2.00;;;14.40;98.10;;;;;;5035191;28;20484;-60
2021/04/11 06:25:38;;;;;;;3.83;2.73;;;14.40;98.00;;;;;;5035259;28;20428;-60
2021/04/11 06:28:18;;;;;;;3.07;1.87;;;14.40;97.70;;;;;;5034751;28;20937;-60
2021/04/11 06:30:56;;;;;;;45.73;26.30;;;14.50;98.00;;;;;;5035160;28;20393;-60
2021/04/11 06:33:30;;;;;;;2.90;1.93;;;14.60;98.60;;;;;;5050589;28;20426;-60
2021/04/11 06:36:17;;;;;;;3.60;2.23;;;14.70;97.30;;;;;;5054294;28;20407;-60
2021/04/11 06:38:53;;;;;;;3.53;2.27;;;14.90;96.20;;;;;;5041642;28;20421;-60
2021/04/11 06:41:40;;;;;;;8.50;7.47;;;15.10;96.40;;;;;;5034420;28;20391;-60
2021/04/11 06:44:37;;;;;;;9.03;6.67;;;15.20;96.70;;;;;;5029220;28;20868;-61
2021/04/11 06:47:12;;;;;;;7.60;6.30;;;15.50;95.30;;;;;;5040313;28;20456;-60
2021/04/11 06:50:11;;;;;;;11.57;8.67;;;15.60;94.50;;;;;;5053851;28;20492;-60
2021/04/11 06:52:50;;;;;;;12.17;9.07;;;15.80;94.10;;;;;;5053598;28;20949;-60
2021/04/11 06:55:28;;;;;;;8.03;7.33;;;15.90;94.20;;;;;;5054331;28;20407;-60
2021/04/11 06:58:02;;;;;;;5.53;2.70;;;15.90;93.90;;;;;;5054285;28;20958;-59
2021/04/11 07:01:02;;;;;;;3.27;2.13;;;15.80;93.40;;;;;;5053650;28;20558;-60
2021/04/11 07:03:43;;;;;;;2.70;1.70;;;15.90;93.20;;;;;;5043420;28;20481;-60
2021/04/11 07:06:26;;;;;;;3.87;1.63;;;16.00;93.10;;;;;;5069458;28;20394;-60
2021/04/11 07:08:54;;;;;;;3.50;1.80;;;16.10;92.50;;;;;;5074202;28;20443;-60
2021/04/11 07:11:44;;;;;;;2.00;1.77;;;16.30;92.30;;;;;;5073820;28;20410;-61
2021/04/11 07:14:42;;;;;;;3.00;1.80;;;16.20;91.90;;;;;;5074082;28;20417;-60
2021/04/11 07:17:34;;;;;;;2.90;1.90;;;16.20;91.80;;;;;;5073736;28;20487;-60
2021/04/11 07:20:24;;;;;;;2.20;1.80;;;16.40;91.00;;;;;;5073695;28;20440;-60
2021/04/11 07:23:14;;;;;;;2.93;1.47;;;16.30;91.80;;;;;;5073839;28;20427;-61
2021/04/11 07:25:48;;;;;;;2.87;1.90;;;16.50;91.00;;;;;;5073542;28;20430;-61
2021/04/11 07:28:38;;;;;;;3.67;1.50;;;16.80;91.80;;;;;;5073479;28;20450;-61
2021/04/11 07:31:34;;;;;;;1.50;1.40;;;16.60;90.00;;;;;;5073615;28;20813;-61
2021/04/11 07:34:41;;;;;;;3.80;1.63;;;16.40;90.20;;;;;;5070974;28;20760;-60
2021/04/11 07:37:40;;;;;;;2.23;1.70;;;16.40;91.30;;;;;;5053828;28;20496;-61
2021/04/11 07:40:17;;;;;;;2.07;1.60;;;16.50;91.20;;;;;;5053524;28;20788;-60
2021/04/11 07:43:07;;;;;;;2.83;1.60;;;16.70;90.60;;;;;;5053484;28;20449;-60
2021/04/11 07:45:59;;;;;;;1.80;1.37;;;16.90;90.00;;;;;;5042523;28;20415;-60
2021/04/11 07:48:43;;;;;;;1.57;1.40;;;17.20;90.00;;;;;;5052550;28;20448;-61
2021/04/11 07:51:30;;;;;;;2.40;1.70;;;17.20;89.40;;;;;;5045128;28;20764;-61
2021/04/11 07:54:05;;;;;;;2.97;1.90;;;17.10;89.90;;;;;;5034210;28;20985;-62
2021/04/11 07:57:03;;;;;;;3.80;1.97;;;17.20;89.80;;;;;;5052154;28;20424;-61
2021/04/11 08:00:09;;;;;;;2.63;1.80;;;17.10;89.90;;;;;;5052735;28;20393;-61
2021/04/11 08:02:50;;;;;;;3.43;2.17;;;17.20;89.30;;;;;;5048423;28;20528;-61
2021/04/11 08:05:44;;;;;;;2.00;1.63;;;17.00;89.50;;;;;;5044502;28;20416;-61
2021/04/11 08:08:10;;;;;;;5.63;2.07;;;16.70;90.10;;;;;;5046249;28;20867;-61
2021/04/11 08:10:50;;;;;;;2.33;1.47;;;16.90;90.30;;;;;;5053157;28;20457;-61
2021/04/11 08:13:43;;;;;;;2.00;1.80;;;17.10;90.10;;;;;;5052771;28;20440;-60
2021/04/11 08:16:36;;;;;;;2.20;1.50;;;17.10;90.10;;;;;;5052788;28;20526;-61
2021/04/11 08:19:23;;;;;;;1.87;1.50;;;17.30;90.20;;;;;;5023895;28;20519;-61
2021/04/11 08:22:17;;;;;;;3.00;1.40;;;17.40;89.10;;;;;;5052545;28;20425;-61
2021/04/11 08:25:10;;;;;;;2.03;1.50;;;17.70;88.60;;;;;;5037237;28;20448;-61
2021/04/11 08:28:21;;;;;;;1.33;1.23;;;17.50;89.80;;;;;;5030617;28;20490;-61
2021/04/11 08:30:55;;;;;;;1.40;1.30;;;17.70;89.30;;;;;;5003509;28;20418;-61
2021/04/11 08:33:44;;;;;;;3.43;1.17;;;17.80;87.80;;;;;;5033416;28;20497;-61
2021/04/11 08:36:51;;;;;;;1.90;1.20;;;18.00;87.80;;;;;;5024791;28;20779;-61
2021/04/11 08:39:29;;;;;;;4.83;1.17;;;18.00;87.00;;;;;;5032711;28;20873;-61
2021/04/11 08:41:57;;;;;;;2.90;1.10;;;18.00;86.60;;;;;;5032860;28;20478;-61
2021/04/11 08:44:38;;;;;;;4.80;1.60;;;18.20;86.70;;;;;;5033288;28;20402;-61
2021/04/11 08:47:21;;;;;;;2.20;1.20;;;18.30;87.10;;;;;;5033032;28;20437;-61
2021/04/11 08:50:04;;;;;;;2.20;1.20;;;18.30;87.60;;;;;;5032892;28;20481;-61
2021/04/11 08:52:50;;;;;;;1.40;0.87;;;18.30;85.30;;;;;;5032783;28;20524;-61
2021/04/11 08:55:38;;;;;;;1.67;1.57;;;18.50;84.60;;;;;;5032666;28;20394;-61
2021/04/11 08:58:09;;;;;;;2.13;1.30;;;18.70;85.30;;;;;;5032952;28;20386;-60
2021/04/11 09:00:48;;;;;;;2.57;1.23;;;18.70;83.70;;;;;;5032832;28;20402;-60
2021/04/11 09:03:16;;;;;;;2.70;1.40;;;18.70;83.50;;;;;;5034278;28;20778;-60
2021/04/11 09:05:56;;;;;;;1.63;1.30;;;18.70;83.80;;;;;;5036775;28;20406;-59
2021/04/11 09:08:24;;;;;;;1.33;1.17;;;18.80;83.80;;;;;;5048226;28;20440;-60
2021/04/11 09:11:22;;;;;;;1.90;1.20;;;19.00;83.50;;;;;;5056456;28;20401;-60
2021/04/11 09:13:59;;;;;;;1.47;1.37;;;18.90;82.30;;;;;;5055892;28;20769;-60
2021/04/11 09:16:44;;;;;;;2.80;1.10;;;19.00;84.00;;;;;;5047527;28;20838;-60
2021/04/11 09:19:57;;;;;;;2.73;1.23;;;19.10;82.70;;;;;;5056546;28;20858;-60
2021/04/11 09:22:39;;;;;;;1.27;0.80;;;18.70;81.00;;;;;;5050613;28;20441;-60
2021/04/11 09:25:26;;;;;;;2.47;1.30;;;18.90;82.50;;;;;;5056423;28;20543;-60
2021/04/11 09:28:07;;;;;;;1.47;1.20;;;19.10;81.90;;;;;;5056528;28;20456;-60
2021/04/11 09:31:10;;;;;;;1.57;1.20;;;19.10;81.30;;;;;;5056066;28;20390;-60
2021/04/11 09:34:06;;;;;;;3.27;1.10;;;19.00;81.10;;;;;;5055933;28;20389;-60
2021/04/11 09:36:45;;;;;;;3.70;1.30;;;19.20;81.40;;;;;;5055897;28;20408;-60
2021/04/11 09:39:44;;;;;;;1.83;1.17;;;19.20;80.90;;;;;;5055885;28;20389;-61
2021/04/11 09:42:27;;;;;;;2.50;1.50;;;19.60;81.60;;;;;;5056061;28;20433;-60
2021/04/11 09:45:05;;;;;;;2.63;1.40;;;19.60;79.30;;;;;;5055997;28;20489;-60
2021/04/11 09:47:31;;;;;;;1.93;1.33;;;19.50;79.70;;;;;;5056054;28;20837;-60
2021/04/11 09:50:30;;;;;;;1.73;1.10;;;19.70;81.00;;;;;;5055951;28;20484;-60
2021/04/11 09:53:09;;;;;;;2.87;1.33;;;19.80;78.40;;;;;;5056316;28;20320;-61
2021/04/11 09:55:42;;;;;;;2.50;1.53;;;20.10;78.00;;;;;;5055749;28;20424;-60
2021/04/11 09:58:26;;;;;;;1.43;1.17;;;19.90;79.40;;;;;;5055804;28;20397;-60
2021/04/11 10:01:21;;;;;;;2.10;1.53;;;19.50;77.80;;;;;;5055818;28;20800;-59
2021/04/11 10:04:37;;;;;;;1.33;1.20;;;19.60;80.10;;;;;;5055723;28;20386;-61
2021/04/11 10:07:32;;;;;;;2.73;1.30;;;19.80;78.40;;;;;;4993862;28;20416;-61
2021/04/11 10:10:02;;;;;;;2.43;1.33;;;19.90;77.20;;;;;;4993998;28;20555;-60
2021/04/11 10:12:56;;;;;;;2.97;1.23;;;20.20;77.40;;;;;;5041092;28;20456;-60
2021/04/11 10:15:46;;;;;;;2.27;1.00;;;20.10;76.20;;;;;;5054409;28;20430;-60
2021/04/11 10:18:39;;;;;;;2.53;1.10;;;19.80;76.90;;;;;;5055362;28;20381;-60
2021/04/11 10:21:26;;;;;;;2.73;1.30;;;20.00;76.00;;;;;;5054768;28;20735;-60
2021/04/11 10:24:13;;;;;;;1.20;1.07;;;19.90;74.70;;;;;;5055244;28;20734;-60
2021/04/11 10:27:03;;;;;;;1.77;1.23;;;20.00;74.80;;;;;;5055249;28;20381;-60
2021/04/11 10:29:31;;;;;;;2.30;1.73;;;20.30;74.40;;;;;;5055041;28;20940;-60
2021/04/11 10:32:14;;;;;;;3.70;1.63;;;21.30;74.50;;;;;;5055127;28;20429;-60
2021/04/11 10:35:13;;;;;;;2.10;1.20;;;21.50;70.90;;;;;;5055230;28;20428;-60
2021/04/11 10:37:44;;;;;;;1.37;1.27;;;21.10;71.10;;;;;;5054816;28;20405;-61
2021/04/11 10:40:19;;;;;;;3.33;1.30;;;21.30;71.30;;;;;;5054835;28;20468;-60
2021/04/11 10:43:20;;;;;;;2.17;1.60;;;21.50;70.20;;;;;;5054825;28;20780;-60
2021/04/11 10:46:12;;;;;;;1.53;1.33;;;21.30;70.80;;;;;;5054574;28;20409;-58
2021/04/11 10:49:08;;;;;;;1.63;1.20;;;21.40;70.10;;;;;;5054785;28;20814;-61
2021/04/11 10:52:05;;;;;;;3.80;1.50;;;21.00;69.60;;;;;;5054466;28;20427;-61
2021/04/11 10:55:01;;;;;;;2.47;1.17;;;20.70;69.70;;;;;;5054614;28;20388;-60
2021/04/11 10:57:50;;;;;;;1.00;0.90;;;20.60;70.60;;;;;;5054472;28;20473;-59
2021/04/11 11:00:23;;;;;;;3.20;1.53;;;20.00;70.30;;;;;;5054265;28;20404;-60
2021/04/11 11:03:25;;;;;;;2.60;1.47;;;19.90;71.70;;;;;;5054465;28;20423;-60
2021/04/11 11:06:04;;;;;;;1.37;1.17;;;20.00;71.80;;;;;;5071409;28;20522;-61
2021/04/11 11:09:00;;;;;;;2.50;1.33;;;19.90;71.50;;;;;;5074357;28;20841;-60
2021/04/11 11:11:29;;;;;;;2.23;1.20;;;19.60;71.90;;;;;;5073900;28;20424;-61
2021/04/11 11:14:16;;;;;;;1.77;1.00;;;19.70;72.40;;;;;;5074240;28;20379;-60
2021/04/11 11:17:03;;;;;;;1.60;1.30;;;20.00;72.60;;;;;;5074094;28;20407;-60
2021/04/11 11:19:49;;;;;;;3.97;1.47;;;19.90;73.60;;;;;;5073549;28;20508;-60
2021/04/11 11:22:38;;;;;;;1.83;1.40;;;20.20;73.10;;;;;;5074059;28;20519;-58
2021/04/11 11:25:25;;;;;;;3.93;1.93;;;20.40;73.60;;;;;;5073935;28;20381;-60
2021/04/11 11:27:59;;;;;;;1.77;1.60;;;20.40;72.10;;;;;;5073498;28;20392;-60
2021/04/11 11:30:49;;;;;;;2.10;1.67;;;20.50;71.50;;;;;;5073774;28;20388;-60
2021/04/11 11:33:31;;;;;;;4.77;1.50;;;20.50;72.30;;;;;;5073442;28;20416;-60
2021/04/11 11:36:08;;;;;;;3.77;1.80;;;20.60;70.50;;;;;;5073648;28;20438;-60
2021/04/11 11:38:37;;;;;;;4.70;2.23;;;20.60;70.50;;;;;;5073448;28;20408;-60
2021/04/11 11:41:34;;;;;;;2.40;1.70;;;20.80;72.00;;;;;;5073530;28;20400;-58
2021/04/11 11:44:14;;;;;;;3.97;2.30;;;21.40;68.90;;;;;;5073978;28;20384;-60
2021/04/11 11:46:54;;;;;;;5.60;1.70;;;21.50;69.40;;;;;;5073757;28;20392;-60
2021/04/11 11:49:34;;;;;;;3.10;1.70;;;21.70;67.90;;;;;;5073547;28;20440;-60
2021/04/11 11:52:18;;;;;;;3.20;2.03;;;21.70;67.80;;;;;;5073551;28;20981;-60
2021/04/11 11:55:08;;;;;;;1.67;1.57;;;21.80;69.20;;;;;;5073402;28;20423;-61
2021/04/11 11:58:02;;;;;;;2.70;1.60;;;22.20;66.80;;;;;;5032207;28;20400;-61
2021/04/11 12:00:32;;;;;;;2.00;1.53;;;23.60;64.80;;;;;;5073762;28;20392;-59
2021/04/11 12:03:19;;;;;;;3.60;1.57;;;25.00;61.70;;;;;;5073686;28;20416;-61
2021/04/11 12:06:08;;;;;;;2.03;1.30;;;25.90;60.00;;;;;;5073548;28;20956;-61
2021/04/11 12:08:58;;;;;;;1.67;1.40;;;27.30;56.10;;;;;;5051006;28;20452;-60
2021/04/11 12:11:42;;;;;;;3.20;1.70;;;26.80;56.10;;;;;;5033271;28;20441;-60
2021/04/11 12:14:29;;;;;;;4.17;1.40;;;26.00;56.50;;;;;;5033540;28;20401;-60
2021/04/11 12:17:13;;;;;;;2.47;1.53;;;26.60;57.20;;;;;;5033494;28;20447;-60
2021/04/11 12:20:03;;;;;;;2.93;1.53;;;25.80;54.70;;;;;;5033885;28;20886;-60
2021/04/11 12:22:48;;;;;;;2.60;1.50;;;26.20;56.10;;;;;;5032902;28;20944;-60
2021/04/11 12:25:23;;;;;;;2.10;1.80;;;26.60;55.50;;;;;;5033369;28;20871;-62
2021/04/11 12:27:49;;;;;;;3.33;1.87;;;28.80;52.40;;;;;;5033370;28;20451;-61
2021/04/11 12:30:28;;;;;;;3.30;1.53;;;30.00;49.50;;;;;;5033065;28;20394;-61
2021/04/11 12:33:03;;;;;;;2.00;1.37;;;30.10;47.30;;;;;;5015517;28;20417;-61
2021/04/11 12:35:31;;;;;;;1.80;1.50;;;27.90;49.80;;;;;;5035922;28;20408;-60
2021/04/11 12:38:18;;;;;;;2.73;1.33;;;26.50;50.90;;;;;;5054014;28;20393;-60
2021/04/11 12:41:01;;;;;;;3.20;1.23;;;26.80;51.90;;;;;;5057996;28;20881;-60
2021/04/11 12:43:52;;;;;;;1.97;1.30;;;27.30;50.60;;;;;;5056974;28;20421;-61
2021/04/11 12:46:39;;;;;;;4.10;1.30;;;27.20;50.10;;;;;;5056495;28;20393;-63
2021/04/11 12:49:08;;;;;;;3.13;1.60;;;26.60;50.90;;;;;;5057016;28;20471;-61
2021/04/11 12:51:55;;;;;;;2.87;1.43;;;26.10;52.20;;;;;;5056994;28;20767;-60
2021/04/11 12:54:43;;;;;;;1.50;1.40;;;25.00;56.00;;;;;;5056627;28;20482;-60
2021/04/11 12:57:21;;;;;;;3.90;2.13;;;23.80;58.40;;;;;;5056843;28;20879;-60
2021/04/11 13:00:21;;;;;;;3.00;1.63;;;23.10;61.30;;;;;;5057014;28;20388;-60
2021/04/11 13:02:53;;;;;;;3.83;1.90;;;22.60;62.90;;;;;;5056816;28;20460;-59
2021/04/11 13:05:41;;;;;;;1.90;1.70;;;22.30;64.00;;;;;;5056551;28;20401;-60
2021/04/11 13:08:31;;;;;;;2.77;1.47;;;21.80;65.10;;;;;;5059061;28;20476;-59
2021/04/11 13:10:56;;;;;;;2.43;1.40;;;21.70;66.90;;;;;;5056530;28;20416;-61
2021/04/11 13:13:29;;;;;;;3.00;1.40;;;21.60;67.50;;;;;;5056129;28;20436;-61
2021/04/11 13:16:01;;;;;;;2.07;1.07;;;21.70;66.80;;;;;;5057396;28;20270;-60
2021/04/11 13:18:34;;;;;;;1.80;1.43;;;21.50;67.00;;;;;;5056407;28;20385;-60
2021/04/11 13:21:20;;;;;;;5.47;1.83;;;21.40;67.30;;;;;;5056158;28;20401;-61
2021/04/11 13:23:57;;;;;;;3.17;1.70;;;21.30;67.10;;;;;;5056206;28;20421;-59
2021/04/11 13:26:44;;;;;;;3.90;1.80;;;21.00;68.00;;;;;;5056396;28;20468;-58
2021/04/11 13:29:15;;;;;;;4.50;1.90;;;20.80;69.90;;;;;;5056055;28;20462;-59
2021/04/11 13:31:50;;;;;;;1.37;1.27;;;21.00;69.40;;;;;;5056055;28;20503;-61
2021/04/11 13:34:23;;;;;;;3.27;1.70;;;21.00;68.70;;;;;;5056264;28;20404;-61
2021/04/11 13:36:50;;;;;;;3.00;1.90;;;21.20;68.70;;;;;;5056287;28;20390;-61
2021/04/11 13:39:20;;;;;;;2.83;1.80;;;21.30;69.10;;;;;;5056045;28;20437;-61
2021/04/11 13:42:10;;;;;;;2.87;1.90;;;21.30;69.10;;;;;;5038722;28;20451;-59
2021/04/11 13:45:03;;;;;;;2.50;1.70;;;21.00;69.50;;;;;;5056491;28;20394;-60